createdAt,value
2019-02-05T00:02:12.596Z,101658.44
2019-02-05T00:04:42.344Z,101664.89
2019-02-05T00:07:12.112Z,101666.45
2019-02-05T00:09:41.867Z,101663.00
2019-02-05T00:12:11.619Z,101664.41
2019-02-05T00:14:41.364Z,101665.77
2019-02-05T00:17:11.140Z,101673.63
2019-02-05T00:19:40.874Z,101660.62
2019-02-05T00:22:10.656Z,101668.75
2019-02-05T00:24:40.499Z,101671.00
2019-02-05T00:27:10.268Z,101663.06
2019-02-05T00:29:40.024Z,101674.00
2019-02-05T00:32:09.740Z,101669.58
2019-02-05T00:34:39.476Z,101672.92
2019-02-05T00:37:09.225Z,101668.92
2019-02-05T00:39:39.334Z,101682.42
2019-02-05T00:42:09.091Z,101680.16
2019-02-05T00:44:38.838Z,101670.27
2019-02-05T00:47:08.593Z,101679.37
2019-02-05T00:49:38.316Z,101682.19
2019-02-05T00:52:08.095Z,101684.55
2019-02-05T00:54:37.904Z,101687.52
2019-02-05T00:57:07.653Z,101697.08
2019-02-05T00:59:37.432Z,101690.70
2019-02-05T01:02:07.195Z,101694.47
2019-02-05T01:04:36.938Z,101707.84
2019-02-05T01:07:06.862Z,101702.25
2019-02-05T01:09:36.597Z,101689.47
2019-02-05T01:12:06.425Z,101693.17
2019-02-05T01:14:36.227Z,101700.52
2019-02-05T01:17:06.001Z,101698.79
2019-02-05T01:19:35.742Z,101706.16
2019-02-05T01:22:05.785Z,101707.32
2019-02-05T01:24:35.530Z,101709.95
2019-02-05T01:27:05.319Z,101708.12
2019-02-05T01:29:35.080Z,101714.87
2019-02-05T01:32:04.845Z,101719.17
2019-02-05T01:34:34.586Z,101721.67
2019-02-05T01:37:04.469Z,101728.09
2019-02-05T01:39:34.214Z,101735.81
2019-02-05T01:42:03.982Z,101733.28
2019-02-05T01:44:33.730Z,101719.77
2019-02-05T01:47:03.506Z,101718.70
2019-02-05T01:49:33.255Z,101708.06
2019-02-05T01:52:03.016Z,101706.42
2019-02-05T01:54:32.795Z,101713.69
2019-02-05T01:57:02.543Z,101710.89
2019-02-05T01:59:33.389Z,101706.86
2019-02-05T02:02:03.320Z,101719.41
2019-02-05T02:04:33.467Z,101707.92
2019-02-05T02:07:03.385Z,101713.36
2019-02-05T02:09:33.169Z,101718.50
2019-02-05T02:12:04.779Z,101721.83
2019-02-05T02:14:34.562Z,101719.45
2019-02-05T02:17:04.454Z,101723.70
2019-02-05T02:19:34.300Z,101722.36
2019-02-05T02:22:04.037Z,101719.26
2019-02-05T02:24:33.810Z,101721.48
2019-02-05T02:27:03.552Z,101719.67
2019-02-05T02:29:33.407Z,101718.56
2019-02-05T02:32:03.171Z,101713.77
2019-02-05T02:34:32.966Z,101715.09
2019-02-05T02:37:02.703Z,101711.52
2019-02-05T02:39:32.508Z,101713.55
2019-02-05T02:42:02.229Z,101717.89
2019-02-05T02:44:32.004Z,101715.33
2019-02-05T02:47:01.929Z,101720.59
2019-02-05T02:49:31.731Z,101712.31
2019-02-05T02:52:01.652Z,101711.91
2019-02-05T02:54:31.409Z,101714.00
2019-02-05T02:57:04.834Z,101714.12
2019-02-05T02:59:32.644Z,101721.48
2019-02-05T03:02:02.772Z,101718.37
2019-02-05T03:04:32.610Z,101721.05
2019-02-05T03:07:02.350Z,101719.27
2019-02-05T03:09:33.201Z,101724.72
2019-02-05T03:12:02.939Z,101736.83
2019-02-05T03:14:32.719Z,101740.33
2019-02-05T03:17:02.870Z,101740.28
2019-02-05T03:19:32.615Z,101739.48
2019-02-05T03:22:02.400Z,101738.16
2019-02-05T03:24:32.156Z,101744.39
2019-02-05T03:27:01.926Z,101745.14
2019-02-05T03:29:31.797Z,101739.48
2019-02-05T03:32:01.544Z,101740.53
2019-02-05T03:34:32.661Z,101736.05
2019-02-05T03:37:02.422Z,101736.91
2019-02-05T03:39:32.213Z,101730.22
2019-02-05T03:42:02.112Z,101741.74
2019-02-05T03:44:31.913Z,101734.69
2019-02-05T03:47:01.666Z,101730.13
2019-02-05T03:49:31.818Z,101730.57
2019-02-05T03:52:03.996Z,101719.62
2019-02-05T03:54:52.262Z,101727.52
2019-02-05T03:57:31.650Z,101718.61
2019-02-05T04:00:19.731Z,101728.45
2019-02-05T04:02:58.602Z,101722.87
2019-02-05T04:06:04.671Z,101726.73
2019-02-05T04:08:52.118Z,101721.63
2019-02-05T04:11:39.994Z,101731.91
2019-02-05T04:14:15.818Z,101737.22
2019-02-05T04:16:54.824Z,101734.48
2019-02-05T04:19:33.350Z,101724.42
2019-02-05T04:22:12.092Z,101727.56
2019-02-05T04:24:50.755Z,101733.77
2019-02-05T04:27:44.962Z,101725.00
2019-02-05T04:30:29.820Z,101724.95
2019-02-05T04:33:17.406Z,101722.64
2019-02-05T04:35:59.379Z,101724.69
2019-02-05T04:38:41.157Z,101723.66
2019-02-05T04:41:38.614Z,101726.23
2019-02-05T04:44:35.810Z,101719.86
2019-02-05T04:47:09.196Z,101716.48
2019-02-05T04:49:50.829Z,101717.81
2019-02-05T04:52:29.413Z,101715.73
2019-02-05T04:55:26.778Z,101720.56
2019-02-05T04:58:08.683Z,101724.99
2019-02-05T05:00:44.663Z,101718.52
2019-02-05T05:03:17.876Z,101721.31
2019-02-05T05:05:56.866Z,101728.77
2019-02-05T05:08:44.710Z,101719.63
2019-02-05T05:11:14.825Z,101722.87
2019-02-05T05:13:44.597Z,101719.02
2019-02-05T05:16:14.351Z,101729.65
2019-02-05T05:18:44.121Z,101732.35
2019-02-05T05:21:13.857Z,101735.55
2019-02-05T05:23:45.168Z,101739.54
2019-02-05T05:26:15.071Z,101747.38
2019-02-05T05:28:44.837Z,101743.35
2019-02-05T05:31:14.573Z,101737.98
2019-02-05T05:33:44.365Z,101741.62
2019-02-05T05:36:14.113Z,101742.63
2019-02-05T05:38:43.874Z,101745.16
2019-02-05T05:41:13.697Z,101747.25
2019-02-05T05:43:43.473Z,101751.06
2019-02-05T05:46:13.215Z,101748.23
2019-02-05T05:48:42.967Z,101761.31
2019-02-05T05:51:13.794Z,101762.28
2019-02-05T05:53:43.630Z,101757.77
2019-02-05T05:56:13.380Z,101756.47
2019-02-05T05:58:43.142Z,101754.70
2019-02-05T06:01:12.916Z,101748.23
2019-02-05T06:03:43.798Z,101755.15
2019-02-05T06:06:13.570Z,101755.15
2019-02-05T06:08:43.312Z,101757.77
2019-02-05T06:11:13.151Z,101758.78
2019-02-05T06:13:43.072Z,101758.02
2019-02-05T06:16:12.922Z,101762.68
2019-02-05T06:18:42.674Z,101769.63
2019-02-05T06:21:13.738Z,101772.47
2019-02-05T06:23:43.669Z,101771.10
2019-02-05T06:26:13.517Z,101775.66
2019-02-05T06:28:43.441Z,101779.35
2019-02-05T06:31:13.253Z,101784.72
2019-02-05T06:33:43.164Z,101787.86
2019-02-05T06:36:13.089Z,101787.06
2019-02-05T06:38:44.758Z,101782.15
2019-02-05T06:41:14.725Z,101787.06
2019-02-05T06:43:44.662Z,101791.19
2019-02-05T06:46:14.432Z,101791.09
2019-02-05T06:48:44.181Z,101790.73
2019-02-05T06:51:13.990Z,101794.59
2019-02-05T06:53:43.782Z,101797.39
2019-02-05T06:56:13.523Z,101801.55
2019-02-05T06:58:46.623Z,101800.53
2019-02-05T07:01:14.909Z,101792.44
2019-02-05T07:03:44.677Z,101804.09
2019-02-05T07:06:14.452Z,101806.03
2019-02-05T07:08:44.201Z,101811.30
2019-02-05T07:11:13.966Z,101812.02
2019-02-05T07:13:43.970Z,101822.05
2019-02-05T07:16:13.739Z,101826.03
2019-02-05T07:18:43.474Z,101833.09
2019-02-05T07:21:13.237Z,101839.29
2019-02-05T07:23:43.004Z,101840.61
2019-02-05T07:26:12.759Z,101844.17
2019-02-05T07:28:42.713Z,101839.34
2019-02-05T07:31:12.493Z,101841.58
2019-02-05T07:33:42.247Z,101843.39
2019-02-05T07:36:12.014Z,101844.36
2019-02-05T07:38:41.761Z,101851.02
2019-02-05T07:41:11.536Z,101856.66
2019-02-05T07:43:41.292Z,101852.56
2019-02-05T07:46:11.255Z,101852.08
2019-02-05T07:48:41.004Z,101855.23
2019-02-05T07:51:10.774Z,101857.41
2019-02-05T07:53:40.534Z,101859.81
2019-02-05T07:56:12.894Z,101854.34
2019-02-05T07:58:41.779Z,101857.14
2019-02-05T08:04:08.319Z,101863.53
2019-02-05T08:06:38.093Z,101870.98
2019-02-05T08:09:08.574Z,101872.50
2019-02-05T08:11:41.241Z,101875.83
2019-02-05T08:14:10.054Z,101883.81
2019-02-05T08:16:39.804Z,101889.26
2019-02-05T08:19:09.539Z,101882.79
2019-02-05T08:21:39.318Z,101888.83
2019-02-05T08:24:09.095Z,101892.25
2019-02-05T08:26:38.845Z,101894.78
2019-02-05T08:29:08.868Z,101897.09
2019-02-05T08:31:38.634Z,101898.83
2019-02-05T08:34:08.388Z,101905.79
2019-02-05T08:36:38.201Z,101903.66
2019-02-05T08:39:08.761Z,101914.34
2019-02-05T08:41:38.601Z,101914.12
2019-02-05T08:44:08.350Z,101917.48
2019-02-05T08:46:38.101Z,101925.13
2019-02-05T08:49:07.926Z,101923.98
2019-02-05T08:51:37.676Z,101922.52
2019-02-05T08:54:08.386Z,101922.30
2019-02-05T08:56:38.156Z,101921.14
2019-02-05T08:59:07.903Z,101927.93
2019-02-05T09:01:37.873Z,101931.96
2019-02-05T09:04:07.597Z,101935.30
2019-02-05T09:06:37.373Z,101934.40
2019-02-05T09:09:07.752Z,101932.32
2019-02-05T09:11:37.580Z,101941.81
2019-02-05T09:14:11.052Z,101947.72
2019-02-05T09:16:38.814Z,101944.92
2019-02-05T09:19:08.560Z,101939.85
2019-02-05T09:21:38.325Z,101946.02
2019-02-05T09:24:08.141Z,101945.56
2019-02-05T09:26:37.908Z,101952.91
2019-02-05T09:29:07.663Z,101963.01
2019-02-05T09:31:37.441Z,101956.61
2019-02-05T09:34:07.190Z,101954.27
2019-02-05T09:36:37.117Z,101960.13
2019-02-05T09:39:07.193Z,101965.08
2019-02-05T09:41:37.017Z,101961.16
2019-02-05T09:44:06.805Z,101966.23
2019-02-05T09:46:36.599Z,101968.64
2019-02-05T09:49:06.611Z,101965.89
2019-02-05T09:51:36.376Z,101963.58
2019-02-05T09:54:06.121Z,101968.95
2019-02-05T09:56:35.894Z,101961.41
2019-02-05T09:59:05.629Z,101973.54
2019-02-05T10:01:35.387Z,101980.14
2019-02-05T10:04:05.484Z,101978.69
2019-02-05T10:06:35.260Z,101981.27
2019-02-05T10:09:07.449Z,101980.77
2019-02-05T10:11:37.206Z,101992.05
2019-02-05T10:14:06.947Z,101990.57
2019-02-05T10:16:36.722Z,101993.05
2019-02-05T10:19:06.489Z,101997.01
2019-02-05T10:21:36.283Z,101997.73
2019-02-05T10:24:06.096Z,101994.36
2019-02-05T10:26:35.858Z,101994.93
2019-02-05T10:29:05.606Z,101998.67
2019-02-05T10:31:35.372Z,101998.14
2019-02-05T10:34:05.167Z,101998.67
2019-02-05T10:36:34.921Z,102002.39
2019-02-05T10:39:07.559Z,102005.68
2019-02-05T10:41:37.324Z,102003.37
2019-02-05T10:44:07.079Z,102009.77
2019-02-05T10:46:36.854Z,102003.52
2019-02-05T10:49:06.700Z,102007.95
2019-02-05T10:51:36.651Z,102002.27
2019-02-05T10:54:06.550Z,102005.60
2019-02-05T10:56:36.401Z,102009.20
2019-02-05T10:59:06.217Z,102013.23
2019-02-05T11:01:36.008Z,102006.58
2019-02-05T11:04:05.759Z,102011.36
2019-02-05T11:06:35.913Z,102015.91
2019-02-05T11:09:07.304Z,102001.55
2019-02-05T11:11:37.083Z,101998.45
2019-02-05T11:14:06.840Z,102005.73
2019-02-05T11:16:36.602Z,102008.97
2019-02-05T11:19:06.348Z,101993.66
2019-02-05T11:21:36.452Z,101998.55
2019-02-05T11:24:06.251Z,101993.97
2019-02-05T11:26:36.780Z,101990.95
2019-02-05T11:29:06.731Z,101994.05
2019-02-05T11:31:36.598Z,101984.77
2019-02-05T11:34:06.369Z,101981.27
2019-02-05T11:36:36.180Z,101983.44
2019-02-05T11:39:09.207Z,101986.81
2019-02-05T11:41:38.946Z,101977.84
2019-02-05T11:44:08.709Z,101983.75
2019-02-05T11:46:38.442Z,101979.85
2019-02-05T11:49:08.212Z,101983.30
2019-02-05T11:51:37.976Z,101987.13
2019-02-05T11:54:07.732Z,101975.49
2019-02-05T11:56:37.490Z,101980.64
2019-02-05T11:59:07.248Z,101977.27
2019-02-05T12:01:39.023Z,101978.02
2019-02-05T12:04:10.062Z,101983.17
2019-02-05T12:06:39.890Z,101976.52
2019-02-05T12:09:18.961Z,101977.48
2019-02-05T12:11:48.709Z,101977.66
2019-02-05T12:14:18.714Z,101978.20
2019-02-05T12:16:48.469Z,101974.73
2019-02-05T12:19:18.272Z,101978.25
2019-02-05T12:21:48.023Z,101977.76
2019-02-05T12:24:17.809Z,101979.77
2019-02-05T12:26:47.587Z,101972.70
2019-02-05T12:29:17.337Z,101968.84
2019-02-05T12:31:47.090Z,101968.38
2019-02-05T12:34:16.906Z,101968.60
2019-02-05T12:36:46.664Z,101971.05
2019-02-05T12:39:17.761Z,101967.02
2019-02-05T12:41:47.587Z,101967.72
2019-02-05T12:44:17.359Z,101974.61
2019-02-05T12:46:47.088Z,101967.77
2019-02-05T12:49:16.852Z,101965.46
2019-02-05T12:51:46.592Z,101970.80
2019-02-05T12:54:16.754Z,101964.56
2019-02-05T12:56:46.506Z,101965.11
2019-02-05T12:59:16.285Z,101974.61
2019-02-05T13:01:46.006Z,101968.75
2019-02-05T13:04:15.839Z,101976.83
2019-02-05T13:06:45.577Z,101977.09
2019-02-05T13:09:15.348Z,101989.16
2019-02-05T13:11:45.201Z,101987.83
2019-02-05T13:14:15.034Z,101993.75
2019-02-05T13:16:44.791Z,101990.98
2019-02-05T13:19:14.580Z,101995.22
2019-02-05T13:21:44.319Z,101997.48
2019-02-05T13:24:16.565Z,101999.56
2019-02-05T13:26:45.549Z,101999.42
2019-02-05T13:29:15.374Z,101997.34
2019-02-05T13:31:45.138Z,102002.63
2019-02-05T13:34:14.994Z,102000.89
2019-02-05T13:36:45.114Z,102001.95
2019-02-05T13:39:14.917Z,102005.30
2019-02-05T13:41:44.671Z,102009.02
2019-02-05T13:44:14.447Z,102009.28
2019-02-05T13:46:44.185Z,102007.73
2019-02-05T13:49:13.959Z,102005.68
2019-02-05T13:51:43.697Z,102008.97
2019-02-05T13:54:13.457Z,102009.69
2019-02-05T13:56:43.182Z,102008.66
2019-02-05T13:59:13.022Z,102006.09
2019-02-05T14:01:44.682Z,102013.24
2019-02-05T14:04:14.238Z,102011.16
2019-02-05T14:06:43.973Z,102007.12
2019-02-05T14:09:13.892Z,102004.50
2019-02-05T14:11:43.640Z,102003.23
2019-02-05T14:14:13.493Z,102004.36
2019-02-05T14:16:43.249Z,102007.59
2019-02-05T14:19:13.232Z,102010.75
2019-02-05T14:21:42.958Z,102008.62
2019-02-05T14:24:12.850Z,102012.35
2019-02-05T14:26:42.612Z,102017.77
2019-02-05T14:29:12.419Z,102015.47
2019-02-05T14:31:42.181Z,102019.11
2019-02-05T14:34:12.350Z,102024.17
2019-02-05T14:36:42.099Z,102018.00
2019-02-05T14:39:11.895Z,102017.77
2019-02-05T14:41:41.747Z,102018.48
2019-02-05T14:44:11.490Z,102019.11
2019-02-05T14:46:41.227Z,102013.64
2019-02-05T14:49:11.270Z,102012.08
2019-02-05T14:51:41.018Z,102017.14
2019-02-05T14:54:10.797Z,102014.09
2019-02-05T14:56:40.556Z,102024.62
2019-02-05T14:59:10.398Z,102014.79
2019-02-05T15:01:43.197Z,102018.33
2019-02-05T15:04:12.614Z,102017.31
2019-02-05T15:06:42.402Z,102019.63
2019-02-05T15:09:12.126Z,102017.27
2019-02-05T15:11:41.882Z,102015.80
2019-02-05T15:14:11.658Z,102011.69
2019-02-05T15:16:42.660Z,102014.61
2019-02-05T15:19:12.700Z,102025.31
2019-02-05T15:21:42.429Z,102025.98
2019-02-05T15:24:12.199Z,102019.46
2019-02-05T15:26:41.949Z,102020.61
2019-02-05T15:29:12.834Z,102016.03
2019-02-05T15:31:53.920Z,102027.05
2019-02-05T15:34:15.812Z,102022.42
2019-02-05T15:36:46.326Z,102019.84
2019-02-05T15:39:16.137Z,102008.73
2019-02-05T15:41:45.919Z,102016.25
2019-02-05T15:44:15.934Z,102009.86
2019-02-05T15:46:45.719Z,102014.69
2019-02-05T15:49:15.534Z,102007.45
2019-02-05T15:51:46.269Z,102004.81
2019-02-05T15:54:16.032Z,102010.19
2019-02-05T15:56:45.794Z,102010.98
2019-02-05T15:59:15.545Z,102005.61
2019-02-05T16:01:45.342Z,102004.78
2019-02-05T16:04:15.094Z,102010.15
2019-02-05T16:06:44.888Z,102015.81
2019-02-05T16:09:14.637Z,102012.82
2019-02-05T16:11:44.406Z,102012.55
2019-02-05T16:14:14.165Z,102011.26
2019-02-05T16:16:43.976Z,102009.53
2019-02-05T16:19:13.712Z,102002.34
2019-02-05T16:21:44.453Z,102004.30
2019-02-05T16:24:14.195Z,101997.55
2019-02-05T16:26:44.343Z,102000.13
2019-02-05T16:29:14.100Z,102001.91
2019-02-05T16:31:43.867Z,102008.24
2019-02-05T16:34:13.621Z,102010.19
2019-02-05T16:36:43.415Z,102006.68
2019-02-05T16:39:13.196Z,102011.42
2019-02-05T16:41:43.255Z,102019.73
2019-02-05T16:44:13.014Z,102019.16
2019-02-05T16:46:43.865Z,102023.77
2019-02-05T16:49:13.630Z,102018.06
2019-02-05T16:51:43.397Z,102019.50
2019-02-05T16:54:13.167Z,102018.77
2019-02-05T16:56:43.004Z,102020.13
2019-02-05T16:59:12.766Z,102028.02
2019-02-05T17:01:42.521Z,102028.55
2019-02-05T17:04:12.264Z,102025.11
2019-02-05T17:06:42.042Z,102029.87
2019-02-05T17:09:15.176Z,102021.73
2019-02-05T17:11:44.958Z,102027.47
2019-02-05T17:14:14.726Z,102021.73
2019-02-05T17:16:44.529Z,102017.70
2019-02-05T17:19:14.313Z,102016.36
2019-02-05T17:21:44.067Z,102017.44
2019-02-05T17:24:13.999Z,102019.40
2019-02-05T17:26:43.808Z,102016.77
2019-02-05T17:29:13.592Z,102026.28
2019-02-05T17:31:43.388Z,102020.84
2019-02-05T17:34:13.194Z,102016.36
2019-02-05T17:36:42.968Z,102013.66
2019-02-05T17:39:12.916Z,102020.69
2019-02-05T17:41:42.742Z,102015.13
2019-02-05T17:44:12.519Z,102004.41
2019-02-05T17:46:42.360Z,102009.79
2019-02-05T17:49:12.332Z,102010.44
2019-02-05T17:51:42.050Z,102010.83
2019-02-05T17:54:12.115Z,102008.73
2019-02-05T17:56:41.902Z,102003.58
2019-02-05T17:59:11.662Z,102007.28
2019-02-05T18:01:41.427Z,102004.38
2019-02-05T18:04:11.253Z,102000.02
2019-02-05T18:06:41.045Z,101998.89
2019-02-05T18:09:11.073Z,101998.83
2019-02-05T18:11:40.851Z,101998.58
2019-02-05T18:14:11.682Z,102004.31
2019-02-05T18:16:41.549Z,102002.23
2019-02-05T18:19:11.343Z,102001.22
2019-02-05T18:21:41.116Z,102003.03
2019-02-05T18:24:10.894Z,102000.63
2019-02-05T18:26:40.771Z,102000.78
2019-02-05T18:29:10.547Z,101999.14
2019-02-05T18:31:40.408Z,101992.37
2019-02-05T18:34:10.255Z,101999.44
2019-02-05T18:36:40.418Z,101993.16
2019-02-05T18:39:10.193Z,101992.72
2019-02-05T18:41:40.943Z,101993.63
2019-02-05T18:44:10.696Z,101992.98
2019-02-05T18:46:40.481Z,101986.08
2019-02-05T18:49:10.270Z,101988.23
2019-02-05T18:51:41.177Z,101991.70
2019-02-05T18:54:10.963Z,101994.06
2019-02-05T18:56:40.749Z,101992.98
2019-02-05T18:59:10.735Z,101991.42
2019-02-05T19:01:40.465Z,101994.86
2019-02-05T19:04:11.335Z,101995.57
2019-02-05T19:06:41.108Z,101997.25
2019-02-05T19:09:12.697Z,101991.48
2019-02-05T19:11:42.487Z,101996.12
2019-02-05T19:14:12.347Z,101990.86
2019-02-05T19:16:42.089Z,101984.19
2019-02-05T19:19:14.975Z,101982.07
2019-02-05T19:21:43.631Z,101982.74
2019-02-05T19:24:15.063Z,101981.85
2019-02-05T19:26:45.763Z,101985.14
2019-02-05T19:29:18.811Z,101989.19
2019-02-05T19:31:47.012Z,101988.12
2019-02-05T19:34:16.823Z,101982.50
2019-02-05T19:36:46.577Z,101992.59
2019-02-05T19:39:16.401Z,101996.02
2019-02-05T19:41:46.276Z,101984.19
2019-02-05T19:44:16.190Z,101987.56
2019-02-05T19:46:50.517Z,101996.59
2019-02-05T19:49:25.273Z,101991.44
2019-02-05T19:51:55.010Z,101994.62
2019-02-05T19:54:25.429Z,102001.34
2019-02-05T19:56:55.150Z,101991.58
2019-02-05T19:59:25.482Z,101989.93
2019-02-05T20:01:55.209Z,101990.30
2019-02-05T20:04:25.202Z,101999.87
2019-02-05T20:06:54.965Z,101998.53
2019-02-05T20:09:24.804Z,101997.77
2019-02-05T20:11:54.547Z,101994.02
2019-02-05T20:14:24.317Z,101993.16
2019-02-05T20:16:54.089Z,102000.63
2019-02-05T20:19:24.971Z,101989.64
2019-02-05T20:21:54.877Z,101994.72
2019-02-05T20:24:24.665Z,101988.22
2019-02-05T20:26:54.407Z,101998.89
2019-02-05T20:29:24.192Z,101995.17
2019-02-05T20:31:53.936Z,102001.05
2019-02-05T20:34:24.096Z,102007.50
2019-02-05T20:36:54.576Z,101998.48
2019-02-05T20:39:24.375Z,101996.17
2019-02-05T20:41:54.483Z,102001.62
2019-02-05T20:44:24.339Z,101995.51
2019-02-05T20:46:54.186Z,101999.77
2019-02-05T20:49:24.330Z,101997.29
2019-02-05T20:51:54.097Z,102003.28
2019-02-05T20:54:23.901Z,102005.42
2019-02-05T20:56:53.664Z,102010.49
2019-02-05T20:59:23.479Z,102007.16
2019-02-05T21:01:56.124Z,102001.25
2019-02-05T21:04:24.912Z,102003.69
2019-02-05T21:06:54.780Z,102004.58
2019-02-05T21:09:24.577Z,101997.86
2019-02-05T21:11:54.361Z,101997.86
2019-02-05T21:14:24.112Z,101997.06
2019-02-05T21:16:54.000Z,102003.28
2019-02-05T21:19:23.787Z,101998.19
2019-02-05T21:21:53.879Z,102003.78
2019-02-05T21:24:23.730Z,102001.78
2019-02-05T21:26:53.479Z,101995.92
2019-02-05T21:29:24.408Z,101999.73
2019-02-05T21:31:54.134Z,102000.48
2019-02-05T21:34:23.903Z,101998.09
2019-02-05T21:36:53.889Z,101993.42
2019-02-05T21:39:23.704Z,102000.66
2019-02-05T21:41:53.472Z,102000.14
2019-02-05T21:44:23.251Z,102004.53
2019-02-05T21:46:53.022Z,102003.46
2019-02-05T21:49:22.933Z,101999.20
2019-02-05T21:51:52.855Z,101999.10
2019-02-05T21:54:22.622Z,101989.02
2019-02-05T21:56:52.376Z,101983.23
2019-02-05T21:59:22.159Z,101985.86
2019-02-05T22:01:51.923Z,101993.59
2019-02-05T22:04:27.295Z,101987.41
2019-02-05T22:06:53.253Z,101988.75
2019-02-05T22:09:23.028Z,101997.38
2019-02-05T22:11:52.898Z,101995.61
2019-02-05T22:14:22.665Z,101989.20
2019-02-05T22:16:52.479Z,101996.58
2019-02-05T22:19:22.536Z,102001.08
2019-02-05T22:21:52.303Z,101996.77
2019-02-05T22:24:22.124Z,101993.21
2019-02-05T22:26:51.889Z,101979.09
2019-02-05T22:29:21.631Z,101969.64
2019-02-05T22:31:51.401Z,101972.65
2019-02-05T22:34:21.548Z,101975.03
2019-02-05T22:36:51.339Z,101981.38
2019-02-05T22:39:21.120Z,101984.38
2019-02-05T22:41:50.860Z,101994.38
2019-02-05T22:44:20.616Z,101988.80
2019-02-05T22:46:50.755Z,101986.55
2019-02-05T22:49:20.496Z,101980.88
2019-02-05T22:51:50.551Z,101986.23
2019-02-05T22:54:20.311Z,101983.16
2019-02-05T22:56:50.847Z,101978.80
2019-02-05T22:59:20.869Z,101973.84
2019-02-05T23:01:50.712Z,101975.05
2019-02-05T23:04:23.844Z,101971.84
2019-02-05T23:06:59.875Z,101969.44
2019-02-05T23:09:39.513Z,101966.84
2019-02-05T23:12:27.720Z,101969.38
2019-02-05T23:15:04.624Z,101962.51
2019-02-05T23:17:34.399Z,101956.84
2019-02-05T23:20:07.407Z,101955.71
2019-02-05T23:22:37.250Z,101955.52
2019-02-05T23:25:07.663Z,101951.55
2019-02-05T23:27:37.364Z,101955.41
2019-02-05T23:30:13.272Z,101951.17
2019-02-05T23:32:43.051Z,101954.92
2019-02-05T23:35:12.798Z,101950.28
2019-02-05T23:37:42.556Z,101944.91
2019-02-05T23:40:12.734Z,101948.59
2019-02-05T23:42:42.489Z,101938.81
2019-02-05T23:45:13.994Z,101943.71
2019-02-05T23:47:43.802Z,101947.30
2019-02-05T23:50:14.812Z,101944.97
2019-02-05T23:52:44.861Z,101955.00
2019-02-05T23:55:14.795Z,101956.02
2019-02-05T23:57:44.611Z,101949.60
